Time;durP1;ratioP1;P1;durP2;ratioP2;P2;SDS_P1;SDS_P2;PMS_P1;PMS_P2;Temp;Humidity;BMP_temperature;BMP_pressure;BME280_temperature;BME280_humidity;BME280_pressure;Samples;Min_cycle;Max_cycle;Signal;HPM_P1;HPM_P2
2023/09/30 00:00:16;;;;;;;37.50;15.20;;;15.60;41.30;;;;;;5004874;28;47987;-80
2023/09/30 00:02:41;;;;;;;46.60;15.93;;;15.70;41.00;;;;;;5024347;28;46411;-79
2023/09/30 00:05:08;;;;;;;38.47;15.30;;;15.80;40.70;;;;;;5020605;28;46805;-78
2023/09/30 00:07:34;;;;;;;43.57;16.53;;;15.90;40.30;;;;;;5007444;28;46492;-79
2023/09/30 00:10:00;;;;;;;39.07;14.40;;;16.10;41.10;;;;;;5020549;28;46369;-78
2023/09/30 00:12:26;;;;;;;44.20;16.13;;;16.10;39.50;;;;;;5000291;28;46598;-79
2023/09/30 00:14:52;;;;;;;39.50;14.50;;;16.20;39.30;;;;;;5020693;28;46727;-78
2023/09/30 00:17:18;;;;;;;38.63;15.03;;;16.30;39.10;;;;;;4989653;28;45936;-77
2023/09/30 00:19:44;;;;;;;37.33;14.17;;;16.30;38.90;;;;;;5020896;28;46482;-79
2023/09/30 00:22:10;;;;;;;44.37;15.03;;;16.40;38.80;;;;;;5020374;28;46760;-79
2023/09/30 00:24:35;;;;;;;37.70;14.00;;;16.50;38.80;;;;;;5020791;28;46453;-79
2023/09/30 00:27:01;;;;;;;36.40;14.17;;;16.50;38.70;;;;;;5001391;28;46122;-78
2023/09/30 00:29:27;;;;;;;44.20;15.07;;;16.50;38.60;;;;;;5019154;28;47871;-79
2023/09/30 00:31:54;;;;;;;39.70;15.73;;;16.50;38.80;;;;;;5018816;28;46372;-82
2023/09/30 00:34:19;;;;;;;41.00;15.73;;;16.50;38.90;;;;;;5020427;28;45880;-82
2023/09/30 00:36:45;;;;;;;45.23;15.50;;;16.50;40.50;;;;;;5020772;28;46674;-80
2023/09/30 00:39:10;;;;;;;40.73;15.60;;;16.50;39.30;;;;;;5020476;28;46508;-78
2023/09/30 00:41:38;;;;;;;38.07;14.80;;;16.50;39.60;;;;;;5019720;28;46453;-81
2023/09/30 00:44:04;;;;;;;41.77;15.03;;;16.60;39.70;;;;;;5022938;28;46778;-81
2023/09/30 00:46:32;;;;;;;39.73;16.00;;;16.60;39.40;;;;;;5022056;28;46576;-81
2023/09/30 00:48:59;;;;;;;36.00;15.10;;;16.60;39.50;;;;;;5021468;28;48151;-80
2023/09/30 00:51:26;;;;;;;40.90;16.17;;;16.60;39.90;;;;;;5024519;28;46720;-81
2023/09/30 00:53:53;;;;;;;42.60;16.40;;;16.60;40.10;;;;;;5022766;28;46491;-80
2023/09/30 00:56:19;;;;;;;39.73;14.00;;;16.50;40.70;;;;;;5021418;28;46003;-80
2023/09/30 00:58:51;;;;;;;42.27;14.67;;;16.50;41.20;;;;;;5020903;28;46552;-79
2023/09/30 01:01:18;;;;;;;43.50;14.47;;;16.50;41.80;;;;;;5020304;28;46866;-79
2023/09/30 01:03:45;;;;;;;42.30;15.60;;;16.50;42.20;;;;;;5006554;28;46516;-81
2023/09/30 01:06:10;;;;;;;40.60;15.40;;;16.70;43.10;;;;;;5019786;28;46258;-81
2023/09/30 01:08:36;;;;;;;39.30;14.27;;;16.60;43.20;;;;;;5000378;28;49626;-79
2023/09/30 01:11:02;;;;;;;37.73;15.07;;;16.60;43.30;;;;;;5020827;28;46475;-79
2023/09/30 01:13:37;;;;;;;36.80;14.10;;;16.60;43.30;;;;;;5017873;28;46539;-79
2023/09/30 01:16:09;;;;;;;35.43;13.07;;;16.60;42.70;;;;;;5018514;28;46365;-81
2023/09/30 01:18:36;;;;;;;60.30;15.20;;;16.70;42.50;;;;;;5018841;28;46666;-79
2023/09/30 01:21:04;;;;;;;44.33;14.30;;;16.70;41.90;;;;;;5011201;28;46477;-80
2023/09/30 01:23:31;;;;;;;36.27;13.53;;;16.80;41.50;;;;;;5018791;28;46477;-79
2023/09/30 01:25:58;;;;;;;42.40;14.60;;;16.90;41.10;;;;;;5018807;28;46445;-79
2023/09/30 01:28:24;;;;;;;42.60;14.60;;;16.90;40.90;;;;;;5018460;28;46794;-80
2023/09/30 01:30:51;;;;;;;42.30;14.03;;;16.90;41.80;;;;;;5000181;28;46875;-79
2023/09/30 01:33:16;;;;;;;35.63;13.33;;;16.90;40.40;;;;;;5020109;28;46500;-78
2023/09/30 01:35:42;;;;;;;39.03;12.77;;;16.90;40.20;;;;;;5020378;28;46488;-78
2023/09/30 01:38:08;;;;;;;40.90;13.97;;;16.90;40.40;;;;;;5001729;28;47966;-80
2023/09/30 01:40:33;;;;;;;38.73;14.60;;;16.80;40.50;;;;;;5017872;28;46908;-79
2023/09/30 01:42:59;;;;;;;36.37;14.40;;;16.70;40.90;;;;;;5018036;28;46784;-79
2023/09/30 01:45:24;;;;;;;35.87;14.20;;;16.60;41.20;;;;;;5019060;28;46950;-78
2023/09/30 01:47:50;;;;;;;34.83;14.33;;;16.50;41.80;;;;;;5020051;28;46578;-78
2023/09/30 01:50:16;;;;;;;39.30;14.60;;;16.30;42.00;;;;;;5018619;28;46208;-78
2023/09/30 01:52:42;;;;;;;33.87;13.67;;;16.30;41.90;;;;;;5018636;28;46453;-78
2023/09/30 01:55:08;;;;;;;41.03;14.20;;;16.40;41.60;;;;;;5001180;28;46693;-77
2023/09/30 01:57:34;;;;;;;39.13;14.40;;;16.50;41.30;;;;;;5001124;28;49549;-78
2023/09/30 01:59:59;;;;;;;43.10;14.40;;;16.50;41.10;;;;;;5019876;28;46457;-78
2023/09/30 02:02:26;;;;;;;37.33;14.37;;;16.70;41.20;;;;;;5017836;28;46826;-80
2023/09/30 02:04:53;;;;;;;34.63;13.53;;;16.50;40.80;;;;;;5017813;28;45832;-79
2023/09/30 02:07:19;;;;;;;38.23;12.97;;;16.60;40.80;;;;;;5000029;28;49763;-79
2023/09/30 02:09:44;;;;;;;39.57;14.47;;;16.60;40.60;;;;;;5018237;28;46697;-79
2023/09/30 02:12:10;;;;;;;36.57;13.37;;;16.60;40.60;;;;;;5019338;28;46527;-79
2023/09/30 02:14:38;;;;;;;33.53;14.33;;;16.60;40.40;;;;;;5018684;28;46453;-80
2023/09/30 02:17:04;;;;;;;36.20;13.57;;;16.60;40.40;;;;;;5018196;28;46503;-80
2023/09/30 02:19:31;;;;;;;40.20;14.30;;;16.60;40.40;;;;;;5007510;28;46641;-79
2023/09/30 02:21:57;;;;;;;34.23;13.03;;;16.60;40.50;;;;;;5018544;28;46336;-80
2023/09/30 02:24:23;;;;;;;31.53;12.17;;;16.60;40.50;;;;;;5018342;28;46462;-80
2023/09/30 02:26:48;;;;;;;36.33;13.27;;;16.60;40.50;;;;;;5007265;28;48233;-79
2023/09/30 02:29:14;;;;;;;36.40;13.57;;;16.60;40.50;;;;;;5018880;28;46460;-78
2023/09/30 02:31:41;;;;;;;33.33;11.83;;;16.60;40.50;;;;;;5017450;28;46425;-78
2023/09/30 02:34:06;;;;;;;31.20;12.70;;;16.60;40.50;;;;;;5018189;28;46472;-79
2023/09/30 02:36:33;;;;;;;36.67;12.07;;;16.60;40.80;;;;;;5019170;28;46062;-76
2023/09/30 02:38:59;;;;;;;29.30;12.03;;;16.50;41.10;;;;;;5002985;28;46904;-77
2023/09/30 02:41:24;;;;;;;30.17;11.97;;;16.50;41.40;;;;;;5003524;28;46400;-79
2023/09/30 02:43:50;;;;;;;32.93;11.87;;;16.50;41.30;;;;;;5023144;28;46512;-80
2023/09/30 02:46:16;;;;;;;26.33;11.13;;;16.50;41.20;;;;;;5027248;28;46761;-80
2023/09/30 02:48:41;;;;;;;33.87;12.43;;;16.50;41.30;;;;;;5022587;28;46513;-79
2023/09/30 02:51:11;;;;;;;29.47;12.10;;;16.40;41.30;;;;;;5002978;28;46711;-80
2023/09/30 02:53:37;;;;;;;32.07;12.20;;;16.40;41.50;;;;;;5003930;28;46619;-79
2023/09/30 02:56:04;;;;;;;30.60;11.40;;;16.30;41.60;;;;;;5021074;28;46413;-78
2023/09/30 02:58:30;;;;;;;35.50;12.40;;;16.40;41.70;;;;;;5021758;28;46526;-80
2023/09/30 03:00:56;;;;;;;30.23;11.90;;;16.40;41.60;;;;;;5019990;28;46825;-80
2023/09/30 03:03:21;;;;;;;28.13;11.73;;;16.50;41.20;;;;;;5004656;28;46884;-80
2023/09/30 03:05:49;;;;;;;37.50;13.07;;;16.40;41.10;;;;;;5020789;28;46457;-79
2023/09/30 03:08:15;;;;;;;33.30;13.27;;;16.40;41.10;;;;;;5003482;28;47035;-78
2023/09/30 03:10:41;;;;;;;33.40;11.50;;;16.50;40.90;;;;;;5020798;28;46545;-79
2023/09/30 03:13:08;;;;;;;33.67;12.10;;;16.40;41.00;;;;;;5020973;28;46633;-79
2023/09/30 03:15:35;;;;;;;31.40;11.83;;;16.30;41.50;;;;;;5020878;28;47219;-79
2023/09/30 03:18:00;;;;;;;28.30;10.40;;;16.30;41.60;;;;;;5022394;28;46493;-81
2023/09/30 03:20:26;;;;;;;28.53;12.23;;;16.20;41.80;;;;;;5025289;28;46386;-79
2023/09/30 03:22:52;;;;;;;35.87;12.67;;;16.30;42.10;;;;;;5023690;28;46691;-79
2023/09/30 03:25:20;;;;;;;35.20;11.73;;;16.30;41.90;;;;;;5021711;28;47264;-80
2023/09/30 03:27:47;;;;;;;35.30;11.57;;;16.40;41.60;;;;;;5004664;28;46525;-80
2023/09/30 03:30:15;;;;;;;34.43;12.07;;;16.40;41.30;;;;;;5021729;28;46520;-78
2023/09/30 03:32:41;;;;;;;30.83;12.63;;;16.40;41.40;;;;;;5025839;28;46595;-78
2023/09/30 03:35:10;;;;;;;31.17;12.60;;;16.40;41.30;;;;;;5022321;28;46583;-78
2023/09/30 03:37:37;;;;;;;33.40;12.33;;;16.30;41.60;;;;;;5008168;28;46931;-79
2023/09/30 03:40:14;;;;;;;31.50;12.70;;;16.30;41.60;;;;;;5022213;28;46473;-80
2023/09/30 03:42:44;;;;;;;36.27;12.50;;;16.30;41.60;;;;;;5017959;28;46801;-79
2023/09/30 03:45:10;;;;;;;28.60;10.63;;;16.30;41.70;;;;;;5003106;28;48362;-78
2023/09/30 03:47:40;;;;;;;32.57;11.80;;;16.20;41.80;;;;;;5020954;28;46074;-79
2023/09/30 03:50:14;;;;;;;34.60;12.13;;;16.20;41.90;;;;;;5021984;28;46444;-79
2023/09/30 03:52:44;;;;;;;32.63;11.13;;;16.20;41.90;;;;;;5019221;28;46273;-79
2023/09/30 03:55:11;;;;;;;32.17;11.20;;;16.20;42.00;;;;;;5018581;28;47257;-79
2023/09/30 03:57:37;;;;;;;34.60;11.70;;;16.30;41.80;;;;;;5019088;28;46719;-79
2023/09/30 04:00:06;;;;;;;32.47;11.67;;;16.30;41.70;;;;;;5020180;28;46897;-79
2023/09/30 04:02:32;;;;;;;33.87;12.33;;;16.30;41.70;;;;;;5009205;28;46322;-79
2023/09/30 04:04:59;;;;;;;30.47;10.80;;;16.20;41.90;;;;;;5019376;28;46080;-78
2023/09/30 04:07:27;;;;;;;32.10;11.70;;;16.10;42.10;;;;;;5019410;28;46541;-79
2023/09/30 04:09:56;;;;;;;31.20;12.73;;;16.20;42.20;;;;;;5001633;28;46416;-79
2023/09/30 04:12:25;;;;;;;41.23;13.47;;;16.20;42.20;;;;;;5020201;28;46352;-81
2023/09/30 04:14:51;;;;;;;37.47;11.37;;;16.20;42.20;;;;;;5001045;28;48179;-78
2023/09/30 04:17:17;;;;;;;26.70;10.70;;;16.10;42.40;;;;;;5001196;28;46460;-78
2023/09/30 04:19:43;;;;;;;26.97;11.17;;;16.10;42.70;;;;;;5020200;28;46931;-79
2023/09/30 04:22:08;;;;;;;33.30;11.43;;;16.10;42.80;;;;;;5000946;28;46609;-79
2023/09/30 04:24:34;;;;;;;31.20;12.00;;;16.10;42.70;;;;;;5019018;28;47113;-79
2023/09/30 04:27:03;;;;;;;34.03;11.00;;;16.10;42.50;;;;;;5021606;28;46250;-79
2023/09/30 04:29:29;;;;;;;31.33;10.83;;;16.20;42.40;;;;;;5019975;28;46512;-79
2023/09/30 04:31:56;;;;;;;29.40;10.20;;;16.20;42.20;;;;;;5019179;28;46639;-80
2023/09/30 04:34:21;;;;;;;29.60;11.10;;;16.10;42.40;;;;;;5019930;28;47031;-79
2023/09/30 04:36:47;;;;;;;30.27;11.43;;;16.10;42.90;;;;;;5021328;28;46306;-79
2023/09/30 04:39:14;;;;;;;30.70;11.50;;;16.00;43.30;;;;;;5019940;28;46704;-79
2023/09/30 04:41:41;;;;;;;26.30;10.03;;;16.00;43.90;;;;;;5022891;28;46882;-78
2023/09/30 04:44:07;;;;;;;24.80;10.13;;;15.90;43.80;;;;;;5004554;28;47164;-78
2023/09/30 04:46:33;;;;;;;27.37;10.70;;;15.90;43.80;;;;;;5019227;28;46382;-78
2023/09/30 04:48:59;;;;;;;29.13;10.83;;;15.90;43.80;;;;;;5018530;28;46445;-79
2023/09/30 04:51:25;;;;;;;30.60;10.07;;;15.90;43.80;;;;;;5002295;28;46754;-77
2023/09/30 04:53:51;;;;;;;36.10;11.30;;;15.80;43.80;;;;;;5019251;28;46904;-78
2023/09/30 04:56:16;;;;;;;28.23;11.13;;;15.80;43.80;;;;;;5001139;28;46436;-79
2023/09/30 04:58:42;;;;;;;25.73;9.57;;;15.80;43.80;;;;;;5019213;28;46536;-78
2023/09/30 05:01:08;;;;;;;25.00;10.03;;;15.80;43.80;;;;;;5018708;28;47036;-78
2023/09/30 05:03:35;;;;;;;24.47;10.17;;;15.70;44.90;;;;;;5000536;28;49255;-80
2023/09/30 05:06:00;;;;;;;29.73;10.53;;;15.60;44.30;;;;;;5018860;28;46498;-80
2023/09/30 05:08:26;;;;;;;27.77;10.27;;;15.50;44.50;;;;;;5001460;28;46461;-80
2023/09/30 05:10:55;;;;;;;29.23;10.60;;;15.40;45.10;;;;;;5018702;28;46266;-80
2023/09/30 05:13:21;;;;;;;22.60;10.07;;;15.20;45.90;;;;;;5019822;28;46508;-80
2023/09/30 05:15:47;;;;;;;31.57;10.43;;;15.10;46.60;;;;;;5019008;28;46496;-79
2023/09/30 05:18:12;;;;;;;30.03;9.70;;;15.10;46.90;;;;;;5022740;28;46408;-80
2023/09/30 05:20:38;;;;;;;22.60;9.37;;;15.10;47.00;;;;;;5030291;28;46888;-78
2023/09/30 05:23:06;;;;;;;25.67;9.17;;;15.10;46.70;;;;;;5020813;28;46393;-79
2023/09/30 05:25:32;;;;;;;28.70;10.17;;;15.10;46.40;;;;;;5018990;28;46723;-79
2023/09/30 05:27:58;;;;;;;26.30;10.00;;;15.10;46.50;;;;;;5020868;28;46487;-79
2023/09/30 05:30:23;;;;;;;25.97;9.33;;;15.00;46.60;;;;;;5020254;28;46662;-78
2023/09/30 05:32:52;;;;;;;23.90;9.33;;;15.00;46.80;;;;;;5018817;28;46892;-79
2023/09/30 05:35:17;;;;;;;23.50;9.17;;;15.00;47.00;;;;;;5021320;28;46436;-79
2023/09/30 05:37:45;;;;;;;24.27;9.33;;;15.00;46.90;;;;;;5022422;28;46447;-78
2023/09/30 05:40:20;;;;;;;26.60;9.87;;;15.10;46.60;;;;;;5018366;28;46477;-77
2023/09/30 05:42:45;;;;;;;23.77;9.33;;;15.10;46.40;;;;;;5019150;28;46686;-80
2023/09/30 05:45:15;;;;;;;24.97;9.23;;;15.20;46.40;;;;;;5018542;28;46373;-78
2023/09/30 05:47:41;;;;;;;24.00;9.50;;;15.20;46.30;;;;;;5001596;28;46736;-78
2023/09/30 05:50:08;;;;;;;24.73;9.80;;;15.30;46.30;;;;;;5018401;28;46143;-79
2023/09/30 05:52:34;;;;;;;25.07;10.23;;;15.30;46.10;;;;;;5019274;28;48243;-79
2023/09/30 05:55:00;;;;;;;31.20;8.67;;;15.40;46.00;;;;;;5018169;28;46444;-80
2023/09/30 05:57:27;;;;;;;28.83;10.27;;;15.50;45.50;;;;;;5019980;28;46507;-78
2023/09/30 05:59:52;;;;;;;29.83;9.83;;;15.60;45.20;;;;;;5019071;28;46438;-79
2023/09/30 06:02:19;;;;;;;23.93;9.03;;;15.70;45.00;;;;;;5019100;28;47285;-77
2023/09/30 06:04:46;;;;;;;24.93;9.10;;;15.90;44.80;;;;;;4999926;28;46479;-78
2023/09/30 06:07:12;;;;;;;25.37;9.23;;;16.00;44.20;;;;;;5018102;28;46689;-79
2023/09/30 06:09:37;;;;;;;25.00;10.20;;;16.10;44.00;;;;;;5018580;28;46342;-77
2023/09/30 06:12:06;;;;;;;25.13;8.43;;;16.10;44.00;;;;;;5020056;28;47080;-79
2023/09/30 06:14:32;;;;;;;26.13;9.80;;;16.20;44.10;;;;;;5004350;28;47171;-79
2023/09/30 06:16:58;;;;;;;28.97;9.80;;;16.20;44.10;;;;;;5022132;28;46943;-80
2023/09/30 06:19:25;;;;;;;24.63;9.30;;;16.30;44.20;;;;;;5004946;28;46927;-78
2023/09/30 06:21:51;;;;;;;22.90;8.80;;;16.50;43.70;;;;;;5022409;28;47029;-79
2023/09/30 06:24:19;;;;;;;25.33;9.70;;;16.60;43.20;;;;;;5023333;28;45892;-78
2023/09/30 06:26:45;;;;;;;23.60;9.07;;;16.80;42.80;;;;;;5004881;28;46149;-79
2023/09/30 06:29:11;;;;;;;22.80;9.50;;;16.80;42.50;;;;;;5021469;28;46301;-78
2023/09/30 06:31:37;;;;;;;25.83;10.93;;;16.90;42.80;;;;;;5022724;28;46949;-77
2023/09/30 06:34:04;;;;;;;21.07;8.67;;;16.90;42.70;;;;;;5004891;28;46909;-79
2023/09/30 06:36:29;;;;;;;22.77;8.87;;;17.00;42.70;;;;;;5021500;28;46527;-79
2023/09/30 06:38:55;;;;;;;26.23;9.40;;;17.00;42.60;;;;;;5022538;28;46432;-78
2023/09/30 06:41:21;;;;;;;27.60;9.60;;;17.10;42.60;;;;;;5002765;28;49009;-79
2023/09/30 06:43:46;;;;;;;30.03;9.87;;;17.20;42.40;;;;;;5022840;28;46617;-78
2023/09/30 06:46:13;;;;;;;26.17;10.07;;;17.30;42.20;;;;;;5021820;28;46504;-79
2023/09/30 06:48:42;;;;;;;23.43;10.00;;;17.50;41.70;;;;;;5021296;28;46486;-79
2023/09/30 06:51:12;;;;;;;25.00;9.23;;;17.60;41.30;;;;;;5024630;28;46619;-77
2023/09/30 06:53:38;;;;;;;21.47;9.27;;;17.70;41.10;;;;;;5021332;28;46450;-79
2023/09/30 06:56:07;;;;;;;21.17;8.33;;;17.70;41.00;;;;;;5022861;28;46542;-79
2023/09/30 06:58:32;;;;;;;24.60;9.33;;;17.60;40.90;;;;;;5023392;28;46684;-78
2023/09/30 07:00:58;;;;;;;29.17;9.90;;;17.60;41.30;;;;;;5024550;28;46397;-78
2023/09/30 07:03:24;;;;;;;20.47;8.00;;;17.60;40.90;;;;;;5024041;28;46718;-78
2023/09/30 07:05:50;;;;;;;25.40;8.87;;;17.50;41.20;;;;;;5027151;28;46583;-77
2023/09/30 07:08:18;;;;;;;26.83;9.30;;;17.70;40.90;;;;;;5023665;28;46217;-79
2023/09/30 07:10:49;;;;;;;26.03;8.80;;;17.80;40.00;;;;;;5019923;28;46370;-79
2023/09/30 07:13:16;;;;;;;22.60;7.93;;;18.00;39.60;;;;;;5020101;28;46500;-79
2023/09/30 07:15:41;;;;;;;31.60;9.40;;;18.20;38.90;;;;;;5020021;28;46732;-79
2023/09/30 07:18:08;;;;;;;20.37;8.27;;;18.20;38.50;;;;;;5021911;28;46970;-80
2023/09/30 07:20:34;;;;;;;20.40;8.07;;;18.10;38.70;;;;;;5020719;28;46936;-80
2023/09/30 07:23:01;;;;;;;20.00;7.47;;;17.80;39.30;;;;;;5020535;28;46480;-79
2023/09/30 07:25:27;;;;;;;23.87;8.50;;;17.60;40.00;;;;;;5022193;28;46514;-80
2023/09/30 07:27:52;;;;;;;23.13;8.80;;;17.60;40.30;;;;;;5021424;28;46329;-79
2023/09/30 07:30:18;;;;;;;20.40;7.97;;;17.60;39.60;;;;;;5020638;28;47937;-80
2023/09/30 07:32:45;;;;;;;21.57;7.97;;;17.70;39.20;;;;;;5020920;28;45931;-79
2023/09/30 07:35:15;;;;;;;18.00;6.90;;;18.00;38.60;;;;;;5020983;28;46428;-80
2023/09/30 07:37:41;;;;;;;18.60;6.53;;;18.20;37.70;;;;;;5019719;28;46407;-79
2023/09/30 07:40:07;;;;;;;20.60;7.40;;;18.10;37.80;;;;;;5019377;28;47937;-79
2023/09/30 07:42:33;;;;;;;19.00;7.30;;;18.20;37.30;;;;;;5001336;28;46507;-79
2023/09/30 07:44:59;;;;;;;19.40;7.07;;;18.40;37.20;;;;;;5020609;28;46471;-80
2023/09/30 07:47:24;;;;;;;16.33;6.30;;;18.60;36.60;;;;;;5020265;28;46404;-79
2023/09/30 07:49:50;;;;;;;22.43;7.63;;;18.70;36.10;;;;;;5020282;28;46487;-79
2023/09/30 07:52:15;;;;;;;18.77;6.70;;;18.80;35.50;;;;;;5019822;28;46460;-79
2023/09/30 07:54:41;;;;;;;18.67;6.80;;;18.80;35.30;;;;;;5020297;28;46793;-79
2023/09/30 07:57:07;;;;;;;18.00;7.30;;;19.00;34.60;;;;;;5019489;28;46489;-79
2023/09/30 07:59:33;;;;;;;20.87;7.20;;;19.10;33.80;;;;;;5020184;28;46892;-79
2023/09/30 08:01:59;;;;;;;16.50;7.40;;;19.10;33.20;;;;;;5002060;28;47101;-78
2023/09/30 08:04:25;;;;;;;14.57;6.77;;;19.00;33.20;;;;;;5019471;28;46846;-80
2023/09/30 08:06:53;;;;;;;18.83;7.23;;;19.00;31.90;;;;;;5019769;28;46461;-80
2023/09/30 08:09:19;;;;;;;19.93;7.37;;;18.80;31.80;;;;;;5019136;28;46658;-79
2023/09/30 08:11:44;;;;;;;14.40;6.73;;;18.80;31.60;;;;;;5020430;28;46456;-79
2023/09/30 08:14:11;;;;;;;16.53;7.47;;;18.70;31.20;;;;;;5020939;28;46623;-79
2023/09/30 08:16:37;;;;;;;17.77;7.67;;;18.60;32.40;;;;;;5022897;28;46460;-79
2023/09/30 08:19:03;;;;;;;20.10;7.43;;;18.50;32.20;;;;;;5019877;28;46427;-79
2023/09/30 08:21:30;;;;;;;20.73;6.30;;;18.30;32.50;;;;;;5019392;28;46487;-81
2023/09/30 08:23:55;;;;;;;16.67;7.33;;;18.40;32.60;;;;;;5018910;28;46494;-79
2023/09/30 08:26:22;;;;;;;15.97;7.63;;;18.50;32.00;;;;;;5019331;28;46924;-79
2023/09/30 08:28:47;;;;;;;19.47;7.53;;;18.80;31.30;;;;;;5002938;28;49597;-79
2023/09/30 08:31:14;;;;;;;15.60;6.80;;;19.10;30.30;;;;;;5020041;28;46568;-80
2023/09/30 08:33:45;;;;;;;16.53;7.23;;;19.20;29.70;;;;;;5020694;28;46508;-81
2023/09/30 08:36:11;;;;;;;21.27;6.60;;;19.20;29.90;;;;;;5019336;28;45917;-80
2023/09/30 08:38:40;;;;;;;18.33;7.30;;;19.30;29.70;;;;;;5018362;28;47077;-79
2023/09/30 08:41:07;;;;;;;15.93;6.23;;;19.30;29.60;;;;;;5001264;28;47029;-80
2023/09/30 08:43:38;;;;;;;17.30;5.77;;;19.60;29.30;;;;;;5020643;28;46419;-79
2023/09/30 08:46:04;;;;;;;16.90;6.40;;;19.80;28.70;;;;;;5010743;28;46943;-81
2023/09/30 08:48:32;;;;;;;16.80;7.60;;;20.10;28.00;;;;;;5002865;28;48138;-81
2023/09/30 08:50:59;;;;;;;15.70;7.10;;;20.10;27.40;;;;;;5023945;28;46555;-81
2023/09/30 08:53:25;;;;;;;17.30;7.17;;;20.20;26.90;;;;;;5021262;28;46443;-79
2023/09/30 08:55:56;;;;;;;15.73;7.03;;;20.10;26.60;;;;;;5022671;28;45929;-79
2023/09/30 08:58:25;;;;;;;14.37;6.20;;;19.70;27.10;;;;;;5018375;28;46968;-79
2023/09/30 09:00:51;;;;;;;14.60;6.43;;;19.50;27.50;;;;;;5019197;28;46745;-78
2023/09/30 09:03:19;;;;;;;12.97;6.47;;;19.70;27.50;;;;;;5004643;28;46513;-79
2023/09/30 09:05:45;;;;;;;15.47;6.00;;;19.90;27.20;;;;;;5020449;28;46387;-80
2023/09/30 09:08:11;;;;;;;24.70;6.10;;;20.20;26.70;;;;;;5019338;28;46337;-79
2023/09/30 09:10:53;;;;;;;17.43;6.43;;;20.50;26.10;;;;;;5018023;28;46427;-79
2023/09/30 09:13:19;;;;;;;14.23;6.30;;;20.50;25.50;;;;;;5001577;28;46717;-79
2023/09/30 09:15:44;;;;;;;13.43;6.57;;;20.60;25.30;;;;;;5023044;28;46537;-79
2023/09/30 09:18:13;;;;;;;18.23;6.70;;;20.70;24.80;;;;;;5020789;28;46576;-79
2023/09/30 09:20:38;;;;;;;21.20;7.53;;;20.40;24.70;;;;;;5019985;28;46418;-79
2023/09/30 09:23:06;;;;;;;13.60;5.77;;;20.50;24.90;;;;;;5019367;28;46483;-77
2023/09/30 09:25:38;;;;;;;17.70;6.50;;;20.50;24.80;;;;;;5018278;28;46539;-79
2023/09/30 09:28:04;;;;;;;13.20;5.70;;;20.80;24.50;;;;;;5019455;28;46372;-80
2023/09/30 09:30:30;;;;;;;16.63;6.53;;;20.90;23.70;;;;;;5019401;28;46487;-79
2023/09/30 09:33:04;;;;;;;14.67;5.97;;;20.80;23.00;;;;;;5019318;28;46473;-80
2023/09/30 09:35:32;;;;;;;13.73;6.07;;;20.60;22.90;;;;;;5019866;28;46461;-79
2023/09/30 09:37:59;;;;;;;14.10;5.53;;;20.60;22.80;;;;;;5000171;28;49187;-78
2023/09/30 09:40:27;;;;;;;13.40;5.53;;;21.00;22.80;;;;;;5018178;28;46487;-80
2023/09/30 09:42:55;;;;;;;15.70;6.30;;;20.90;22.20;;;;;;5017455;28;46471;-78
2023/09/30 09:45:25;;;;;;;14.10;5.87;;;20.80;22.30;;;;;;5019173;28;46517;-79
2023/09/30 09:47:52;;;;;;;18.80;6.40;;;20.90;22.30;;;;;;5018072;28;46961;-78
2023/09/30 09:50:20;;;;;;;17.27;6.47;;;20.90;22.30;;;;;;4992322;28;47421;-79
2023/09/30 09:52:51;;;;;;;14.30;5.80;;;20.70;21.80;;;;;;5002394;28;46710;-78
2023/09/30 09:55:18;;;;;;;15.70;6.80;;;20.40;21.20;;;;;;5021760;28;46860;-79
2023/09/30 09:57:45;;;;;;;17.67;7.10;;;20.10;21.40;;;;;;5019728;28;47600;-78
2023/09/30 10:00:14;;;;;;;12.60;5.73;;;20.10;21.70;;;;;;5002231;28;46502;-79
2023/09/30 10:02:41;;;;;;;15.37;6.53;;;20.30;21.40;;;;;;5003079;28;46456;-77
2023/09/30 10:05:07;;;;;;;14.93;6.20;;;20.50;21.10;;;;;;5023939;28;46453;-78
2023/09/30 10:07:40;;;;;;;13.10;6.40;;;20.60;20.80;;;;;;5021654;28;46500;-79
2023/09/30 10:10:13;;;;;;;19.20;6.60;;;20.70;20.50;;;;;;5020886;28;46148;-81
2023/09/30 10:12:39;;;;;;;13.63;6.37;;;20.70;20.40;;;;;;5020804;28;46712;-79
2023/09/30 10:15:23;;;;;;;15.20;6.10;;;20.60;20.70;;;;;;5022272;28;46415;-80
2023/09/30 10:18:03;;;;;;;13.93;5.17;;;20.60;20.80;;;;;;5018677;28;46688;-79
2023/09/30 10:20:31;;;;;;;12.60;5.50;;;20.50;21.00;;;;;;5018472;28;46462;-78
2023/09/30 10:23:24;;;;;;;16.43;5.97;;;20.30;21.60;;;;;;5002182;28;46519;-79
2023/09/30 10:26:17;;;;;;;15.60;6.57;;;20.10;21.40;;;;;;5013558;28;46419;-80
2023/09/30 10:28:49;;;;;;;16.53;6.00;;;20.00;21.60;;;;;;4999913;28;47864;-79
2023/09/30 10:31:19;;;;;;;12.13;5.60;;;19.70;22.20;;;;;;5018443;28;46448;-79
2023/09/30 10:33:59;;;;;;;15.90;6.07;;;19.70;22.20;;;;;;4999994;28;46462;-81
2023/09/30 10:36:38;;;;;;;14.53;5.80;;;20.00;21.30;;;;;;5017903;28;46496;-80
2023/09/30 10:39:04;;;;;;;13.63;6.20;;;20.30;21.10;;;;;;5001147;28;48144;-78
2023/09/30 10:41:39;;;;;;;14.70;6.43;;;20.30;21.20;;;;;;5019030;28;46820;-79
2023/09/30 10:44:26;;;;;;;15.20;6.27;;;20.30;21.20;;;;;;5018100;28;46448;-78
2023/09/30 10:46:52;;;;;;;14.73;6.40;;;20.40;20.60;;;;;;5017222;28;46428;-79
2023/09/30 10:49:24;;;;;;;15.20;6.10;;;20.30;20.60;;;;;;4991884;28;48085;-80
2023/09/30 10:51:50;;;;;;;19.73;5.97;;;20.30;20.10;;;;;;5018333;28;46772;-79
2023/09/30 10:54:25;;;;;;;16.90;6.43;;;20.40;20.00;;;;;;5018151;28;46475;-80
2023/09/30 10:56:55;;;;;;;15.10;5.27;;;20.20;20.30;;;;;;5003110;28;46432;-80
2023/09/30 10:59:22;;;;;;;18.90;6.50;;;20.50;19.40;;;;;;5023271;28;46632;-81
2023/09/30 11:01:49;;;;;;;15.00;5.87;;;20.90;18.70;;;;;;5020178;28;47025;-79
2023/09/30 11:04:15;;;;;;;13.87;6.23;;;21.40;17.40;;;;;;5022881;28;46483;-79
2023/09/30 11:06:41;;;;;;;20.17;5.97;;;21.50;16.70;;;;;;5003215;28;46052;-79
2023/09/30 11:09:12;;;;;;;14.60;6.30;;;21.50;16.70;;;;;;5020897;28;46475;-78
2023/09/30 11:11:42;;;;;;;17.70;6.87;;;21.60;16.70;;;;;;5020198;28;46524;-79
2023/09/30 11:14:23;;;;;;;15.87;6.30;;;21.50;16.70;;;;;;5020531;28;46568;-78
2023/09/30 11:16:54;;;;;;;17.47;7.50;;;21.60;16.60;;;;;;5002739;28;46473;-80
2023/09/30 11:19:21;;;;;;;13.50;5.47;;;21.70;16.50;;;;;;5002488;28;49297;-78
2023/09/30 11:21:52;;;;;;;16.23;6.23;;;21.90;16.60;;;;;;5019834;28;45869;-78
2023/09/30 11:24:18;;;;;;;17.80;6.67;;;21.70;16.70;;;;;;5021175;28;46540;-80
2023/09/30 11:26:45;;;;;;;15.97;6.37;;;21.40;17.30;;;;;;4994274;28;46485;-79
2023/09/30 11:29:13;;;;;;;19.80;7.40;;;21.00;17.60;;;;;;5019470;28;46943;-78
2023/09/30 11:31:46;;;;;;;17.00;6.70;;;20.60;17.50;;;;;;5002097;28;46398;-78
2023/09/30 11:34:13;;;;;;;17.10;6.70;;;20.60;18.20;;;;;;5021064;28;46510;-77
2023/09/30 11:36:50;;;;;;;17.43;6.97;;;20.70;17.90;;;;;;5020449;28;46274;-79
2023/09/30 11:39:26;;;;;;;17.93;7.80;;;20.60;17.20;;;;;;5019389;28;46461;-79
2023/09/30 11:41:52;;;;;;;16.83;7.00;;;20.60;16.80;;;;;;5001566;28;46903;-79
2023/09/30 11:44:18;;;;;;;20.53;8.33;;;20.60;16.80;;;;;;5021846;28;46528;-79
2023/09/30 11:46:48;;;;;;;24.10;7.50;;;20.80;16.60;;;;;;5002586;28;46427;-79
2023/09/30 11:49:28;;;;;;;17.57;7.23;;;20.90;16.30;;;;;;5020362;28;47142;-78
2023/09/30 11:51:54;;;;;;;24.97;7.97;;;21.10;15.30;;;;;;5023140;28;46389;-80
2023/09/30 11:54:21;;;;;;;22.20;8.67;;;21.10;15.40;;;;;;5021579;28;46531;-78
2023/09/30 11:56:47;;;;;;;16.73;6.80;;;21.20;15.40;;;;;;5001941;28;46492;-79
2023/09/30 11:59:13;;;;;;;17.13;7.00;;;21.10;15.50;;;;;;5021240;28;47727;-79
2023/09/30 12:01:38;;;;;;;22.40;8.07;;;20.90;15.90;;;;;;5021387;28;46365;-80
2023/09/30 12:04:04;;;;;;;22.00;8.30;;;21.10;15.70;;;;;;5020800;28;46505;-79
2023/09/30 12:06:31;;;;;;;23.27;9.33;;;21.30;15.30;;;;;;5022262;28;46825;-76
2023/09/30 12:08:57;;;;;;;22.23;9.23;;;21.40;16.20;;;;;;5020931;28;46927;-79
2023/09/30 12:11:23;;;;;;;18.00;7.40;;;21.40;15.20;;;;;;5020141;28;46506;-79
2023/09/30 12:13:50;;;;;;;19.90;8.30;;;21.50;15.20;;;;;;5021281;28;46640;-79
2023/09/30 12:16:16;;;;;;;19.83;8.97;;;21.50;14.80;;;;;;5004190;28;46615;-76
2023/09/30 12:18:42;;;;;;;23.90;9.17;;;21.80;14.60;;;;;;5021485;28;46525;-78
2023/09/30 12:21:13;;;;;;;20.30;8.60;;;21.90;14.40;;;;;;5006263;28;46773;-80
2023/09/30 12:23:39;;;;;;;22.90;9.30;;;22.00;14.30;;;;;;5020130;28;46643;-80
2023/09/30 12:26:05;;;;;;;20.27;7.83;;;22.00;14.20;;;;;;5023367;28;46101;-80
2023/09/30 12:28:33;;;;;;;21.93;8.97;;;22.20;14.10;;;;;;5022656;28;48412;-79
2023/09/30 12:31:04;;;;;;;21.33;8.47;;;22.20;13.50;;;;;;5021049;28;46490;-79
2023/09/30 12:33:30;;;;;;;22.83;9.40;;;22.20;13.50;;;;;;5020224;28;46815;-80